sensor_id;sensor_type;location;lat;lon;timestamp;P1;durP1;ratioP1;P2;durP2;ratioP2
37309;SDS011;23195;47.744;7.358;2024-01-06T00:00:14;36.17;;;17.87;;
37309;SDS011;23195;47.744;7.358;2024-01-06T00:02:52;33.40;;;18.50;;
37309;SDS011;23195;47.744;7.358;2024-01-06T00:05:35;32.03;;;18.43;;
37309;SDS011;23195;47.744;7.358;2024-01-06T00:08:06;29.93;;;18.77;;
37309;SDS011;23195;47.744;7.358;2024-01-06T00:10:59;34.50;;;19.40;;
37309;SDS011;23195;47.744;7.358;2024-01-06T00:13:28;36.57;;;18.87;;
37309;SDS011;23195;47.744;7.358;2024-01-06T00:15:58;32.33;;;16.80;;
37309;SDS011;23195;47.744;7.358;2024-01-06T00:18:41;28.27;;;16.73;;
37309;SDS011;23195;47.744;7.358;2024-01-06T00:21:07;26.03;;;16.37;;
37309;SDS011;23195;47.744;7.358;2024-01-06T00:23:42;24.70;;;14.93;;
37309;SDS011;23195;47.744;7.358;2024-01-06T00:26:13;30.70;;;15.73;;
37309;SDS011;23195;47.744;7.358;2024-01-06T00:28:38;27.10;;;15.20;;
37309;SDS011;23195;47.744;7.358;2024-01-06T00:31:12;27.63;;;17.90;;
37309;SDS011;23195;47.744;7.358;2024-01-06T00:33:59;28.27;;;16.60;;
37309;SDS011;23195;47.744;7.358;2024-01-06T00:36:29;28.10;;;18.03;;
37309;SDS011;23195;47.744;7.358;2024-01-06T00:39:15;31.93;;;16.40;;
37309;SDS011;23195;47.744;7.358;2024-01-06T00:41:50;26.07;;;15.67;;
37309;SDS011;23195;47.744;7.358;2024-01-06T00:44:21;30.60;;;17.50;;
37309;SDS011;23195;47.744;7.358;2024-01-06T00:47:11;27.23;;;15.83;;
37309;SDS011;23195;47.744;7.358;2024-01-06T00:49:39;22.00;;;13.77;;
37309;SDS011;23195;47.744;7.358;2024-01-06T00:52:15;23.53;;;14.07;;
37309;SDS011;23195;47.744;7.358;2024-01-06T00:54:53;23.03;;;14.17;;
37309;SDS011;23195;47.744;7.358;2024-01-06T00:57:36;24.87;;;14.40;;
37309;SDS011;23195;47.744;7.358;2024-01-06T01:00:20;25.13;;;14.63;;
37309;SDS011;23195;47.744;7.358;2024-01-06T01:02:53;24.63;;;14.60;;
37309;SDS011;23195;47.744;7.358;2024-01-06T01:05:29;25.47;;;14.77;;
37309;SDS011;23195;47.744;7.358;2024-01-06T01:08:08;26.20;;;15.50;;
37309;SDS011;23195;47.744;7.358;2024-01-06T01:10:40;22.37;;;15.10;;
37309;SDS011;23195;47.744;7.358;2024-01-06T01:13:20;23.77;;;14.97;;
37309;SDS011;23195;47.744;7.358;2024-01-06T01:16:02;24.33;;;15.57;;
37309;SDS011;23195;47.744;7.358;2024-01-06T01:18:33;45.90;;;31.13;;
37309;SDS011;23195;47.744;7.358;2024-01-06T01:21:04;23.63;;;15.60;;
37309;SDS011;23195;47.744;7.358;2024-01-06T01:23:41;24.63;;;15.03;;
37309;SDS011;23195;47.744;7.358;2024-01-06T01:26:16;24.03;;;15.13;;
37309;SDS011;23195;47.744;7.358;2024-01-06T01:31:51;23.97;;;13.97;;
37309;SDS011;23195;47.744;7.358;2024-01-06T01:34:22;26.83;;;13.97;;
37309;SDS011;23195;47.744;7.358;2024-01-06T01:36:50;21.03;;;13.73;;
37309;SDS011;23195;47.744;7.358;2024-01-06T01:39:25;25.40;;;15.20;;
37309;SDS011;23195;47.744;7.358;2024-01-06T01:42:04;26.73;;;15.73;;
37309;SDS011;23195;47.744;7.358;2024-01-06T01:44:35;29.00;;;15.07;;
37309;SDS011;23195;47.744;7.358;2024-01-06T01:47:18;24.07;;;14.73;;
37309;SDS011;23195;47.744;7.358;2024-01-06T01:49:56;25.90;;;14.90;;
37309;SDS011;23195;47.744;7.358;2024-01-06T01:52:36;25.77;;;14.93;;
37309;SDS011;23195;47.744;7.358;2024-01-06T01:55:15;24.80;;;14.57;;
37309;SDS011;23195;47.744;7.358;2024-01-06T01:57:46;22.90;;;14.40;;
37309;SDS011;23195;47.744;7.358;2024-01-06T02:00:39;22.10;;;14.33;;
37309;SDS011;23195;47.744;7.358;2024-01-06T02:03:05;23.93;;;15.07;;
37309;SDS011;23195;47.744;7.358;2024-01-06T02:05:48;30.20;;;15.00;;
37309;SDS011;23195;47.744;7.358;2024-01-06T02:08:17;29.93;;;14.50;;
37309;SDS011;23195;47.744;7.358;2024-01-06T02:10:56;24.47;;;13.17;;
37309;SDS011;23195;47.744;7.358;2024-01-06T02:13:53;26.60;;;14.17;;
37309;SDS011;23195;47.744;7.358;2024-01-06T02:16:28;23.80;;;13.60;;
37309;SDS011;23195;47.744;7.358;2024-01-06T02:19:04;25.13;;;13.30;;
37309;SDS011;23195;47.744;7.358;2024-01-06T02:21:43;22.73;;;12.47;;
37309;SDS011;23195;47.744;7.358;2024-01-06T02:24:13;20.93;;;12.03;;
37309;SDS011;23195;47.744;7.358;2024-01-06T02:26:43;25.37;;;13.03;;
37309;SDS011;23195;47.744;7.358;2024-01-06T02:29:21;23.03;;;12.60;;
37309;SDS011;23195;47.744;7.358;2024-01-06T02:31:52;20.83;;;13.13;;
37309;SDS011;23195;47.744;7.358;2024-01-06T02:34:21;21.73;;;12.93;;
37309;SDS011;23195;47.744;7.358;2024-01-06T02:37:06;22.37;;;12.40;;
37309;SDS011;23195;47.744;7.358;2024-01-06T02:39:40;22.63;;;12.97;;
37309;SDS011;23195;47.744;7.358;2024-01-06T02:42:13;20.93;;;12.07;;
37309;SDS011;23195;47.744;7.358;2024-01-06T02:44:38;23.07;;;13.33;;
37309;SDS011;23195;47.744;7.358;2024-01-06T02:47:17;20.30;;;12.13;;
37309;SDS011;23195;47.744;7.358;2024-01-06T02:49:48;21.73;;;12.03;;
37309;SDS011;23195;47.744;7.358;2024-01-06T02:52:31;24.37;;;13.00;;
37309;SDS011;23195;47.744;7.358;2024-01-06T02:55:07;21.47;;;12.03;;
37309;SDS011;23195;47.744;7.358;2024-01-06T02:57:38;19.80;;;12.33;;
37309;SDS011;23195;47.744;7.358;2024-01-06T03:00:09;21.93;;;12.43;;
37309;SDS011;23195;47.744;7.358;2024-01-06T03:02:48;17.63;;;11.87;;
37309;SDS011;23195;47.744;7.358;2024-01-06T03:05:41;22.30;;;12.10;;
37309;SDS011;23195;47.744;7.358;2024-01-06T03:08:19;25.23;;;12.03;;
37309;SDS011;23195;47.744;7.358;2024-01-06T03:10:50;28.50;;;11.93;;
37309;SDS011;23195;47.744;7.358;2024-01-06T03:13:29;22.20;;;11.53;;
37309;SDS011;23195;47.744;7.358;2024-01-06T03:18:53;19.23;;;11.60;;
37309;SDS011;23195;47.744;7.358;2024-01-06T03:21:22;29.20;;;18.93;;
37309;SDS011;23195;47.744;7.358;2024-01-06T03:24:07;27.97;;;17.60;;
37309;SDS011;23195;47.744;7.358;2024-01-06T03:26:34;22.50;;;12.50;;
37309;SDS011;23195;47.744;7.358;2024-01-06T03:29:10;18.60;;;10.80;;
37309;SDS011;23195;47.744;7.358;2024-01-06T03:31:50;18.90;;;9.70;;
37309;SDS011;23195;47.744;7.358;2024-01-06T03:34:26;17.07;;;9.47;;
37309;SDS011;23195;47.744;7.358;2024-01-06T03:39:50;13.03;;;7.17;;
37309;SDS011;23195;47.744;7.358;2024-01-06T03:42:26;11.33;;;7.37;;
37309;SDS011;23195;47.744;7.358;2024-01-06T03:45:05;10.90;;;6.70;;
37309;SDS011;23195;47.744;7.358;2024-01-06T03:47:31;12.23;;;6.37;;
37309;SDS011;23195;47.744;7.358;2024-01-06T03:50:10;13.07;;;6.23;;
37309;SDS011;23195;47.744;7.358;2024-01-06T03:52:46;9.13;;;5.80;;
37309;SDS011;23195;47.744;7.358;2024-01-06T03:55:13;12.10;;;5.60;;
37309;SDS011;23195;47.744;7.358;2024-01-06T03:57:53;9.70;;;5.20;;
37309;SDS011;23195;47.744;7.358;2024-01-06T04:00:46;14.90;;;7.40;;
37309;SDS011;23195;47.744;7.358;2024-01-06T04:03:29;9.87;;;5.33;;
37309;SDS011;23195;47.744;7.358;2024-01-06T04:06:05;13.37;;;5.03;;
37309;SDS011;23195;47.744;7.358;2024-01-06T04:08:47;9.83;;;5.03;;
37309;SDS011;23195;47.744;7.358;2024-01-06T04:11:23;9.20;;;4.83;;
37309;SDS011;23195;47.744;7.358;2024-01-06T04:16:47;10.23;;;4.60;;
37309;SDS011;23195;47.744;7.358;2024-01-06T04:19:31;11.70;;;5.70;;
37309;SDS011;23195;47.744;7.358;2024-01-06T04:25:10;14.17;;;5.93;;
37309;SDS011;23195;47.744;7.358;2024-01-06T04:27:43;9.20;;;5.57;;
37309;SDS011;23195;47.744;7.358;2024-01-06T04:30:22;8.93;;;5.77;;
37309;SDS011;23195;47.744;7.358;2024-01-06T04:32:53;7.97;;;4.60;;
37309;SDS011;23195;47.744;7.358;2024-01-06T04:35:29;8.60;;;4.70;;
37309;SDS011;23195;47.744;7.358;2024-01-06T04:38:07;9.07;;;4.77;;
37309;SDS011;23195;47.744;7.358;2024-01-06T04:40:48;11.80;;;5.40;;
37309;SDS011;23195;47.744;7.358;2024-01-06T04:43:14;12.03;;;4.57;;
37309;SDS011;23195;47.744;7.358;2024-01-06T04:45:51;9.93;;;4.50;;
37309;SDS011;23195;47.744;7.358;2024-01-06T04:48:17;9.70;;;4.43;;
37309;SDS011;23195;47.744;7.358;2024-01-06T04:50:53;15.40;;;4.97;;
37309;SDS011;23195;47.744;7.358;2024-01-06T04:53:22;12.83;;;5.60;;
37309;SDS011;23195;47.744;7.358;2024-01-06T04:56:07;15.80;;;6.73;;
37309;SDS011;23195;47.744;7.358;2024-01-06T04:58:54;9.77;;;5.30;;
37309;SDS011;23195;47.744;7.358;2024-01-06T05:04:16;14.93;;;6.23;;
37309;SDS011;23195;47.744;7.358;2024-01-06T05:06:47;11.63;;;5.50;;
37309;SDS011;23195;47.744;7.358;2024-01-06T05:09:19;11.17;;;5.00;;
37309;SDS011;23195;47.744;7.358;2024-01-06T05:11:50;12.83;;;5.40;;
37309;SDS011;23195;47.744;7.358;2024-01-06T05:14:19;14.00;;;5.23;;
37309;SDS011;23195;47.744;7.358;2024-01-06T05:16:58;15.20;;;5.30;;
37309;SDS011;23195;47.744;7.358;2024-01-06T05:19:23;13.03;;;4.60;;
37309;SDS011;23195;47.744;7.358;2024-01-06T05:21:50;12.63;;;5.70;;
37309;SDS011;23195;47.744;7.358;2024-01-06T05:24:22;10.53;;;5.00;;
37309;SDS011;23195;47.744;7.358;2024-01-06T05:27:03;8.33;;;4.87;;
37309;SDS011;23195;47.744;7.358;2024-01-06T05:29:32;9.63;;;5.10;;
37309;SDS011;23195;47.744;7.358;2024-01-06T05:32:08;8.73;;;4.67;;
37309;SDS011;23195;47.744;7.358;2024-01-06T05:34:52;13.20;;;4.97;;
37309;SDS011;23195;47.744;7.358;2024-01-06T05:37:31;8.10;;;4.13;;
37309;SDS011;23195;47.744;7.358;2024-01-06T05:40:02;9.13;;;4.07;;
37309;SDS011;23195;47.744;7.358;2024-01-06T05:42:36;10.70;;;3.90;;
37309;SDS011;23195;47.744;7.358;2024-01-06T05:45:04;11.50;;;3.80;;
37309;SDS011;23195;47.744;7.358;2024-01-06T05:47:35;9.07;;;3.90;;
37309;SDS011;23195;47.744;7.358;2024-01-06T05:50:04;8.43;;;4.00;;
37309;SDS011;23195;47.744;7.358;2024-01-06T05:52:42;9.90;;;4.43;;
37309;SDS011;23195;47.744;7.358;2024-01-06T05:55:21;10.13;;;4.20;;
37309;SDS011;23195;47.744;7.358;2024-01-06T05:57:47;10.40;;;4.00;;
37309;SDS011;23195;47.744;7.358;2024-01-06T06:00:20;12.57;;;4.97;;
37309;SDS011;23195;47.744;7.358;2024-01-06T06:03:07;9.27;;;4.50;;
37309;SDS011;23195;47.744;7.358;2024-01-06T06:05:40;13.03;;;4.60;;
37309;SDS011;23195;47.744;7.358;2024-01-06T06:08:20;11.37;;;4.80;;
37309;SDS011;23195;47.744;7.358;2024-01-06T06:10:49;9.07;;;4.30;;
37309;SDS011;23195;47.744;7.358;2024-01-06T06:13:39;10.27;;;4.37;;
37309;SDS011;23195;47.744;7.358;2024-01-06T06:16:06;9.67;;;4.53;;
37309;SDS011;23195;47.744;7.358;2024-01-06T06:18:47;11.30;;;4.33;;
37309;SDS011;23195;47.744;7.358;2024-01-06T06:21:25;11.17;;;4.53;;
37309;SDS011;23195;47.744;7.358;2024-01-06T06:23:53;10.23;;;4.23;;
37309;SDS011;23195;47.744;7.358;2024-01-06T06:26:33;11.33;;;4.67;;
37309;SDS011;23195;47.744;7.358;2024-01-06T06:29:09;9.20;;;4.20;;
37309;SDS011;23195;47.744;7.358;2024-01-06T06:31:37;11.10;;;4.23;;
37309;SDS011;23195;47.744;7.358;2024-01-06T06:34:08;8.50;;;4.47;;
37309;SDS011;23195;47.744;7.358;2024-01-06T06:36:43;11.00;;;4.33;;
37309;SDS011;23195;47.744;7.358;2024-01-06T06:39:13;8.50;;;4.20;;
37309;SDS011;23195;47.744;7.358;2024-01-06T06:41:52;9.20;;;4.37;;
37309;SDS011;23195;47.744;7.358;2024-01-06T06:44:23;13.07;;;4.70;;
37309;SDS011;23195;47.744;7.358;2024-01-06T06:46:59;9.60;;;4.17;;
37309;SDS011;23195;47.744;7.358;2024-01-06T06:49:24;10.90;;;4.60;;
37309;SDS011;23195;47.744;7.358;2024-01-06T06:52:02;9.97;;;4.67;;
37309;SDS011;23195;47.744;7.358;2024-01-06T06:54:34;11.50;;;5.27;;
37309;SDS011;23195;47.744;7.358;2024-01-06T06:57:00;9.30;;;4.73;;
37309;SDS011;23195;47.744;7.358;2024-01-06T06:59:30;10.03;;;5.27;;
37309;SDS011;23195;47.744;7.358;2024-01-06T07:02:03;20.20;;;7.83;;
37309;SDS011;23195;47.744;7.358;2024-01-06T07:04:47;11.33;;;6.30;;
37309;SDS011;23195;47.744;7.358;2024-01-06T07:07:16;9.50;;;5.93;;
37309;SDS011;23195;47.744;7.358;2024-01-06T07:09:52;11.53;;;5.43;;
37309;SDS011;23195;47.744;7.358;2024-01-06T07:12:18;10.53;;;5.17;;
37309;SDS011;23195;47.744;7.358;2024-01-06T07:14:47;10.43;;;5.20;;
37309;SDS011;23195;47.744;7.358;2024-01-06T07:17:16;9.23;;;4.90;;
37309;SDS011;23195;47.744;7.358;2024-01-06T07:19:44;11.53;;;5.33;;
37309;SDS011;23195;47.744;7.358;2024-01-06T07:22:17;10.20;;;5.60;;
37309;SDS011;23195;47.744;7.358;2024-01-06T07:24:45;14.27;;;5.20;;
37309;SDS011;23195;47.744;7.358;2024-01-06T07:27:14;10.37;;;5.97;;
37309;SDS011;23195;47.744;7.358;2024-01-06T07:29:47;13.47;;;6.93;;
37309;SDS011;23195;47.744;7.358;2024-01-06T07:32:27;16.80;;;5.40;;
37309;SDS011;23195;47.744;7.358;2024-01-06T07:35:12;11.10;;;6.80;;
37309;SDS011;23195;47.744;7.358;2024-01-06T07:37:51;11.50;;;5.50;;
37309;SDS011;23195;47.744;7.358;2024-01-06T07:40:20;10.07;;;4.87;;
37309;SDS011;23195;47.744;7.358;2024-01-06T07:43:03;7.90;;;5.17;;
37309;SDS011;23195;47.744;7.358;2024-01-06T07:45:45;14.37;;;5.43;;
37309;SDS011;23195;47.744;7.358;2024-01-06T07:48:23;11.30;;;6.20;;
37309;SDS011;23195;47.744;7.358;2024-01-06T07:50:59;14.70;;;6.70;;
37309;SDS011;23195;47.744;7.358;2024-01-06T07:53:30;15.73;;;7.90;;
37309;SDS011;23195;47.744;7.358;2024-01-06T07:56:07;10.07;;;6.27;;
37309;SDS011;23195;47.744;7.358;2024-01-06T07:58:43;8.90;;;6.00;;
37309;SDS011;23195;47.744;7.358;2024-01-06T08:01:14;10.73;;;6.23;;
37309;SDS011;23195;47.744;7.358;2024-01-06T08:03:48;10.80;;;5.73;;
37309;SDS011;23195;47.744;7.358;2024-01-06T08:06:24;9.67;;;5.70;;
37309;SDS011;23195;47.744;7.358;2024-01-06T08:09:21;13.43;;;5.80;;
37309;SDS011;23195;47.744;7.358;2024-01-06T08:11:48;11.87;;;6.17;;
37309;SDS011;23195;47.744;7.358;2024-01-06T08:14:25;16.07;;;6.87;;
37309;SDS011;23195;47.744;7.358;2024-01-06T08:17:03;9.30;;;6.40;;
37309;SDS011;23195;47.744;7.358;2024-01-06T08:19:38;13.40;;;6.27;;
37309;SDS011;23195;47.744;7.358;2024-01-06T08:22:22;10.80;;;6.40;;
37309;SDS011;23195;47.744;7.358;2024-01-06T08:24:56;11.77;;;5.83;;
37309;SDS011;23195;47.744;7.358;2024-01-06T08:27:32;11.00;;;6.70;;
37309;SDS011;23195;47.744;7.358;2024-01-06T08:30:19;12.97;;;5.63;;
37309;SDS011;23195;47.744;7.358;2024-01-06T08:32:55;12.80;;;6.70;;
37309;SDS011;23195;47.744;7.358;2024-01-06T08:35:27;11.47;;;6.50;;
37309;SDS011;23195;47.744;7.358;2024-01-06T08:38:06;10.83;;;6.40;;
37309;SDS011;23195;47.744;7.358;2024-01-06T08:40:37;13.73;;;6.83;;
37309;SDS011;23195;47.744;7.358;2024-01-06T08:43:09;10.40;;;6.00;;
37309;SDS011;23195;47.744;7.358;2024-01-06T08:45:37;12.50;;;6.03;;
37309;SDS011;23195;47.744;7.358;2024-01-06T08:48:05;11.33;;;6.30;;
37309;SDS011;23195;47.744;7.358;2024-01-06T08:50:36;15.80;;;6.70;;
37309;SDS011;23195;47.744;7.358;2024-01-06T08:53:07;14.70;;;6.23;;
37309;SDS011;23195;47.744;7.358;2024-01-06T08:55:36;11.07;;;6.00;;
37309;SDS011;23195;47.744;7.358;2024-01-06T08:58:09;14.10;;;6.20;;
37309;SDS011;23195;47.744;7.358;2024-01-06T09:00:50;13.77;;;6.57;;
37309;SDS011;23195;47.744;7.358;2024-01-06T09:03:44;13.00;;;6.30;;
37309;SDS011;23195;47.744;7.358;2024-01-06T09:06:31;11.10;;;6.80;;
37309;SDS011;23195;47.744;7.358;2024-01-06T09:09:06;12.43;;;6.40;;
37309;SDS011;23195;47.744;7.358;2024-01-06T09:11:43;9.90;;;5.77;;
37309;SDS011;23195;47.744;7.358;2024-01-06T09:14:15;11.23;;;6.37;;
37309;SDS011;23195;47.744;7.358;2024-01-06T09:16:46;9.77;;;5.50;;
37309;SDS011;23195;47.744;7.358;2024-01-06T09:19:15;12.07;;;6.40;;
37309;SDS011;23195;47.744;7.358;2024-01-06T09:21:44;12.93;;;6.63;;
37309;SDS011;23195;47.744;7.358;2024-01-06T09:24:22;9.97;;;6.63;;
37309;SDS011;23195;47.744;7.358;2024-01-06T09:26:58;15.93;;;5.90;;
37309;SDS011;23195;47.744;7.358;2024-01-06T09:29:27;10.77;;;5.73;;
37309;SDS011;23195;47.744;7.358;2024-01-06T09:31:55;11.73;;;6.10;;
37309;SDS011;23195;47.744;7.358;2024-01-06T09:34:24;12.73;;;5.77;;
37309;SDS011;23195;47.744;7.358;2024-01-06T09:36:50;11.77;;;6.50;;
37309;SDS011;23195;47.744;7.358;2024-01-06T09:39:34;10.67;;;6.27;;
37309;SDS011;23195;47.744;7.358;2024-01-06T09:42:04;11.93;;;5.90;;
37309;SDS011;23195;47.744;7.358;2024-01-06T09:44:42;13.53;;;10.80;;
37309;SDS011;23195;47.744;7.358;2024-01-06T09:47:33;13.63;;;6.17;;
37309;SDS011;23195;47.744;7.358;2024-01-06T09:50:00;11.87;;;6.93;;
37309;SDS011;23195;47.744;7.358;2024-01-06T09:52:32;11.37;;;6.50;;
37309;SDS011;23195;47.744;7.358;2024-01-06T09:55:14;12.33;;;7.03;;
37309;SDS011;23195;47.744;7.358;2024-01-06T09:58:10;11.07;;;6.97;;
37309;SDS011;23195;47.744;7.358;2024-01-06T10:00:44;11.23;;;6.23;;
37309;SDS011;23195;47.744;7.358;2024-01-06T10:03:31;12.30;;;6.97;;
37309;SDS011;23195;47.744;7.358;2024-01-06T10:05:59;13.97;;;6.63;;
37309;SDS011;23195;47.744;7.358;2024-01-06T10:08:28;12.40;;;6.87;;
37309;SDS011;23195;47.744;7.358;2024-01-06T10:11:06;12.10;;;6.90;;
37309;SDS011;23195;47.744;7.358;2024-01-06T10:13:33;11.97;;;6.63;;
37309;SDS011;23195;47.744;7.358;2024-01-06T10:16:22;12.83;;;6.30;;
37309;SDS011;23195;47.744;7.358;2024-01-06T10:19:13;10.97;;;6.57;;
37309;SDS011;23195;47.744;7.358;2024-01-06T10:22:00;11.27;;;6.47;;
37309;SDS011;23195;47.744;7.358;2024-01-06T10:24:45;9.73;;;6.23;;
37309;SDS011;23195;47.744;7.358;2024-01-06T10:30:16;12.37;;;7.03;;
37309;SDS011;23195;47.744;7.358;2024-01-06T10:33:11;13.57;;;7.43;;
37309;SDS011;23195;47.744;7.358;2024-01-06T10:36:01;11.77;;;7.17;;
37309;SDS011;23195;47.744;7.358;2024-01-06T10:38:30;13.70;;;6.90;;
37309;SDS011;23195;47.744;7.358;2024-01-06T10:41:08;11.77;;;6.83;;
37309;SDS011;23195;47.744;7.358;2024-01-06T10:43:52;13.67;;;7.40;;
37309;SDS011;23195;47.744;7.358;2024-01-06T10:49:59;11.53;;;7.97;;
37309;SDS011;23195;47.744;7.358;2024-01-06T10:52:43;14.47;;;8.33;;
37309;SDS011;23195;47.744;7.358;2024-01-06T10:55:32;13.67;;;7.93;;
37309;SDS011;23195;47.744;7.358;2024-01-06T10:58:27;11.57;;;7.80;;
37309;SDS011;23195;47.744;7.358;2024-01-06T11:01:08;11.60;;;7.70;;
37309;SDS011;23195;47.744;7.358;2024-01-06T11:03:50;12.83;;;6.87;;
37309;SDS011;23195;47.744;7.358;2024-01-06T11:06:19;13.90;;;6.97;;
37309;SDS011;23195;47.744;7.358;2024-01-06T11:09:14;10.40;;;6.83;;
37309;SDS011;23195;47.744;7.358;2024-01-06T11:14:47;9.07;;;6.40;;
37309;SDS011;23195;47.744;7.358;2024-01-06T11:20:21;10.57;;;6.40;;
37309;SDS011;23195;47.744;7.358;2024-01-06T11:22:55;9.50;;;6.27;;
37309;SDS011;23195;47.744;7.358;2024-01-06T11:25:57;12.60;;;7.17;;
37309;SDS011;23195;47.744;7.358;2024-01-06T11:28:31;12.47;;;6.90;;
37309;SDS011;23195;47.744;7.358;2024-01-06T11:31:41;11.37;;;6.93;;
37309;SDS011;23195;47.744;7.358;2024-01-06T11:34:17;13.90;;;7.87;;
37309;SDS011;23195;47.744;7.358;2024-01-06T11:36:50;13.97;;;8.20;;
37309;SDS011;23195;47.744;7.358;2024-01-06T11:39:40;14.87;;;7.57;;
37309;SDS011;23195;47.744;7.358;2024-01-06T11:42:18;14.67;;;8.47;;
37309;SDS011;23195;47.744;7.358;2024-01-06T11:45:13;16.13;;;8.17;;
37309;SDS011;23195;47.744;7.358;2024-01-06T11:47:47;13.43;;;7.30;;
37309;SDS011;23195;47.744;7.358;2024-01-06T11:50:16;15.40;;;8.50;;
37309;SDS011;23195;47.744;7.358;2024-01-06T11:52:47;14.70;;;7.93;;
37309;SDS011;23195;47.744;7.358;2024-01-06T11:55:18;16.80;;;8.90;;
37309;SDS011;23195;47.744;7.358;2024-01-06T11:57:49;13.67;;;8.43;;
37309;SDS011;23195;47.744;7.358;2024-01-06T12:00:32;14.07;;;8.87;;
37309;SDS011;23195;47.744;7.358;2024-01-06T12:03:09;13.27;;;8.60;;
37309;SDS011;23195;47.744;7.358;2024-01-06T12:06:03;13.83;;;8.57;;
37309;SDS011;23195;47.744;7.358;2024-01-06T12:08:31;16.07;;;8.67;;
37309;SDS011;23195;47.744;7.358;2024-01-06T12:11:05;15.07;;;7.07;;
37309;SDS011;23195;47.744;7.358;2024-01-06T12:13:55;11.90;;;7.33;;
37309;SDS011;23195;47.744;7.358;2024-01-06T12:16:24;12.90;;;7.10;;
37309;SDS011;23195;47.744;7.358;2024-01-06T12:19:16;12.17;;;7.23;;
37309;SDS011;23195;47.744;7.358;2024-01-06T12:22:15;12.53;;;7.87;;
37309;SDS011;23195;47.744;7.358;2024-01-06T12:24:53;10.77;;;7.10;;
37309;SDS011;23195;47.744;7.358;2024-01-06T12:27:41;10.30;;;6.93;;
37309;SDS011;23195;47.744;7.358;2024-01-06T12:30:25;17.90;;;8.30;;
37309;SDS011;23195;47.744;7.358;2024-01-06T12:32:53;11.40;;;6.50;;
37309;SDS011;23195;47.744;7.358;2024-01-06T12:35:25;9.30;;;5.73;;
37309;SDS011;23195;47.744;7.358;2024-01-06T12:38:49;10.23;;;6.33;;
37309;SDS011;23195;47.744;7.358;2024-01-06T12:41:25;10.63;;;5.87;;
37309;SDS011;23195;47.744;7.358;2024-01-06T12:44:05;9.70;;;5.13;;
37309;SDS011;23195;47.744;7.358;2024-01-06T12:46:32;11.60;;;7.07;;
37309;SDS011;23195;47.744;7.358;2024-01-06T12:49:08;10.57;;;5.50;;
37309;SDS011;23195;47.744;7.358;2024-01-06T12:51:44;7.50;;;4.30;;
37309;SDS011;23195;47.744;7.358;2024-01-06T12:54:22;7.83;;;4.40;;
37309;SDS011;23195;47.744;7.358;2024-01-06T12:56:51;8.70;;;4.60;;
37309;SDS011;23195;47.744;7.358;2024-01-06T12:59:27;9.67;;;4.90;;
37309;SDS011;23195;47.744;7.358;2024-01-06T13:02:03;12.23;;;5.10;;
37309;SDS011;23195;47.744;7.358;2024-01-06T13:04:32;17.03;;;13.67;;
37309;SDS011;23195;47.744;7.358;2024-01-06T13:07:09;9.43;;;5.67;;
37309;SDS011;23195;47.744;7.358;2024-01-06T13:09:40;9.13;;;6.13;;
37309;SDS011;23195;47.744;7.358;2024-01-06T13:12:16;10.47;;;5.80;;
37309;SDS011;23195;47.744;7.358;2024-01-06T13:14:54;10.80;;;6.17;;
37309;SDS011;23195;47.744;7.358;2024-01-06T13:17:30;10.80;;;6.50;;
37309;SDS011;23195;47.744;7.358;2024-01-06T13:19:59;10.30;;;6.40;;
37309;SDS011;23195;47.744;7.358;2024-01-06T13:22:36;12.17;;;6.63;;
37309;SDS011;23195;47.744;7.358;2024-01-06T13:25:12;10.20;;;6.77;;
37309;SDS011;23195;47.744;7.358;2024-01-06T13:27:49;10.10;;;6.47;;
37309;SDS011;23195;47.744;7.358;2024-01-06T13:30:24;9.37;;;6.00;;
37309;SDS011;23195;47.744;7.358;2024-01-06T13:33:01;8.87;;;5.67;;
37309;SDS011;23195;47.744;7.358;2024-01-06T13:35:30;9.43;;;5.60;;
37309;SDS011;23195;47.744;7.358;2024-01-06T13:38:11;7.40;;;5.23;;
37309;SDS011;23195;47.744;7.358;2024-01-06T13:40:40;8.67;;;5.97;;
37309;SDS011;23195;47.744;7.358;2024-01-06T13:43:20;5.10;;;3.60;;
37309;SDS011;23195;47.744;7.358;2024-01-06T13:45:45;6.63;;;3.63;;
37309;SDS011;23195;47.744;7.358;2024-01-06T13:48:22;4.00;;;2.97;;
37309;SDS011;23195;47.744;7.358;2024-01-06T13:50:52;4.13;;;3.03;;
37309;SDS011;23195;47.744;7.358;2024-01-06T13:53:23;4.67;;;3.00;;
37309;SDS011;23195;47.744;7.358;2024-01-06T13:56:18;3.90;;;2.70;;
37309;SDS011;23195;47.744;7.358;2024-01-06T13:59:05;5.43;;;2.77;;
37309;SDS011;23195;47.744;7.358;2024-01-06T14:01:44;6.73;;;4.20;;
37309;SDS011;23195;47.744;7.358;2024-01-06T14:04:12;6.90;;;4.60;;
37309;SDS011;23195;47.744;7.358;2024-01-06T14:06:41;7.40;;;5.30;;
37309;SDS011;23195;47.744;7.358;2024-01-06T14:09:12;10.83;;;5.40;;
37309;SDS011;23195;47.744;7.358;2024-01-06T14:11:54;6.77;;;4.43;;
37309;SDS011;23195;47.744;7.358;2024-01-06T14:14:26;5.83;;;4.47;;
37309;SDS011;23195;47.744;7.358;2024-01-06T14:16:54;7.70;;;4.30;;
37309;SDS011;23195;47.744;7.358;2024-01-06T14:19:31;6.60;;;4.10;;
37309;SDS011;23195;47.744;7.358;2024-01-06T14:22:07;6.03;;;4.57;;
37309;SDS011;23195;47.744;7.358;2024-01-06T14:24:42;6.97;;;5.07;;
37309;SDS011;23195;47.744;7.358;2024-01-06T14:27:08;6.90;;;5.10;;
37309;SDS011;23195;47.744;7.358;2024-01-06T14:29:44;7.33;;;5.33;;
37309;SDS011;23195;47.744;7.358;2024-01-06T14:32:12;7.33;;;5.00;;
37309;SDS011;23195;47.744;7.358;2024-01-06T14:34:43;7.40;;;5.00;;
37309;SDS011;23195;47.744;7.358;2024-01-06T14:37:11;6.60;;;4.80;;
37309;SDS011;23195;47.744;7.358;2024-01-06T14:39:40;7.10;;;5.60;;
37309;SDS011;23195;47.744;7.358;2024-01-06T14:42:15;7.37;;;5.03;;
37309;SDS011;23195;47.744;7.358;2024-01-06T14:44:59;7.07;;;5.40;;
37309;SDS011;23195;47.744;7.358;2024-01-06T14:47:28;7.03;;;5.03;;
37309;SDS011;23195;47.744;7.358;2024-01-06T14:50:02;8.10;;;5.40;;
37309;SDS011;23195;47.744;7.358;2024-01-06T14:52:31;7.73;;;5.20;;
37309;SDS011;23195;47.744;7.358;2024-01-06T14:54:56;7.97;;;5.57;;
37309;SDS011;23195;47.744;7.358;2024-01-06T14:57:28;7.60;;;4.83;;
37309;SDS011;23195;47.744;7.358;2024-01-06T14:59:57;6.60;;;5.10;;
37309;SDS011;23195;47.744;7.358;2024-01-06T15:02:29;6.13;;;3.73;;
37309;SDS011;23195;47.744;7.358;2024-01-06T15:04:55;7.67;;;5.73;;
37309;SDS011;23195;47.744;7.358;2024-01-06T15:07:25;7.80;;;4.23;;
37309;SDS011;23195;47.744;7.358;2024-01-06T15:09:56;5.23;;;3.03;;
37309;SDS011;23195;47.744;7.358;2024-01-06T15:15:33;9.40;;;5.67;;
37309;SDS011;23195;47.744;7.358;2024-01-06T15:17:59;16.40;;;13.40;;
37309;SDS011;23195;47.744;7.358;2024-01-06T15:20:35;11.93;;;7.20;;
37309;SDS011;23195;47.744;7.358;2024-01-06T15:23:03;13.30;;;8.83;;
37309;SDS011;23195;47.744;7.358;2024-01-06T15:25:32;15.23;;;11.47;;
37309;SDS011;23195;47.744;7.358;2024-01-06T15:27:58;12.60;;;8.53;;
37309;SDS011;23195;47.744;7.358;2024-01-06T15:30:27;8.27;;;5.80;;
37309;SDS011;23195;47.744;7.358;2024-01-06T15:32:52;9.00;;;6.50;;
37309;SDS011;23195;47.744;7.358;2024-01-06T15:35:18;8.87;;;6.13;;
37309;SDS011;23195;47.744;7.358;2024-01-06T15:37:47;8.03;;;6.03;;
37309;SDS011;23195;47.744;7.358;2024-01-06T15:40:13;11.07;;;7.40;;
37309;SDS011;23195;47.744;7.358;2024-01-06T15:42:41;12.53;;;7.97;;
37309;SDS011;23195;47.744;7.358;2024-01-06T15:45:10;14.40;;;8.33;;
37309;SDS011;23195;47.744;7.358;2024-01-06T15:47:37;13.40;;;9.70;;
37309;SDS011;23195;47.744;7.358;2024-01-06T15:50:05;15.10;;;10.87;;
37309;SDS011;23195;47.744;7.358;2024-01-06T15:52:33;18.43;;;13.17;;
37309;SDS011;23195;47.744;7.358;2024-01-06T15:55:06;22.00;;;14.40;;
37309;SDS011;23195;47.744;7.358;2024-01-06T15:57:37;20.47;;;14.00;;